Time;durP1;ratioP1;P1;durP2;ratioP2;P2;SDS_P1;SDS_P2;PMS_P1;PMS_P2;Temp;Humidity;BMP_temperature;BMP_pressure;BME280_temperature;BME280_humidity;BME280_pressure;Samples;Min_cycle;Max_cycle;Signal;HPM_P1;HPM_P2
2022/09/28 00:02:16;;;;;;;18.92;2.53;;;;;;;9.49;100.00;99438.03;4821748;29;20041;-93
2022/09/28 00:04:44;;;;;;;16.38;3.15;;;;;;;9.49;100.00;99435.41;4835536;29;20038;-94
2022/09/28 00:07:12;;;;;;;17.58;2.83;;;;;;;9.48;100.00;99441.66;4808456;29;20066;-93
2022/09/28 00:09:39;;;;;;;17.33;2.83;;;;;;;9.50;100.00;99443.16;4795358;29;20099;-93
2022/09/28 00:12:07;;;;;;;17.13;4.05;;;;;;;9.48;100.00;99445.13;4808200;29;20388;-92
2022/09/28 00:14:35;;;;;;;17.45;2.70;;;;;;;9.53;100.00;99439.34;4807769;29;20070;-92
2022/09/28 00:17:03;;;;;;;16.05;2.67;;;;;;;9.55;100.00;99438.22;4817968;29;20520;-92
2022/09/28 00:19:31;;;;;;;15.98;2.80;;;;;;;9.59;100.00;99440.53;4823577;29;20037;-93
2022/09/28 00:21:59;;;;;;;22.98;3.65;;;;;;;9.60;100.00;99435.09;4782526;29;20095;-93
2022/09/28 00:24:28;;;;;;;19.63;3.33;;;;;;;9.63;100.00;99442.69;4823904;29;20061;-84
2022/09/28 00:27:00;;;;;;;19.77;3.10;;;;;;;9.62;100.00;99442.84;4804657;29;20030;-84
2022/09/28 00:29:31;;;;;;;14.93;2.83;;;;;;;9.62;100.00;99442.84;4809242;29;20110;-94
2022/09/28 00:32:05;;;;;;;11.93;3.63;;;;;;;9.66;100.00;99447.63;4845442;29;20516;-93
2022/09/28 00:34:40;;;;;;;15.80;2.90;;;;;;;9.66;100.00;99436.25;4802371;29;20050;-92
2022/09/28 00:37:10;;;;;;;12.98;2.97;;;;;;;9.67;100.00;99446.63;4821437;29;20070;-92
2022/09/28 00:39:43;;;;;;;12.63;2.42;;;;;;;9.67;100.00;99445.81;4826850;29;20132;-93
2022/09/28 00:42:24;;;;;;;14.75;2.65;;;;;;;9.66;100.00;99447.63;4809124;29;20426;-93
2022/09/28 00:44:56;;;;;;;22.40;2.80;;;;;;;9.66;100.00;99447.63;4830128;29;20692;-92
2022/09/28 00:47:41;;;;;;;17.88;3.40;;;;;;;9.62;100.00;99448.13;4821306;29;20510;-94
2022/09/28 00:50:34;;;;;;;10.07;2.07;;;;;;;9.62;100.00;99440.22;4810971;29;20048;-91
2022/09/28 00:53:17;;;;;;;14.63;2.17;;;;;;;9.60;100.00;99443.00;4821972;29;20038;-92
2022/09/28 00:55:53;;;;;;;14.55;2.08;;;;;;;9.66;100.00;99441.53;4812498;29;20071;-93
2022/09/28 00:58:26;;;;;;;13.10;2.47;;;;;;;9.70;100.00;99440.19;4807183;29;20507;-93
2022/09/28 01:00:57;;;;;;;12.80;2.17;;;;;;;9.71;100.00;99435.75;4817001;29;20045;-92
2022/09/28 01:03:26;;;;;;;14.82;3.38;;;;;;;9.67;100.00;99437.88;4810976;29;20034;-91
2022/09/28 01:05:58;;;;;;;12.77;2.65;;;;;;;9.67;100.00;99441.38;4811166;29;20041;-92
2022/09/28 01:08:28;;;;;;;13.20;2.67;;;;;;;9.62;100.00;99430.47;4837398;29;20044;-92
2022/09/28 01:10:58;;;;;;;16.33;3.30;;;;;;;9.59;100.00;99435.25;4835392;29;20042;-92
2022/09/28 01:13:28;;;;;;;9.15;2.42;;;;;;;9.58;100.00;99437.06;4820887;29;20034;-92
2022/09/28 01:16:06;;;;;;;17.17;3.08;;;;;;;9.56;100.00;99439.03;4809761;29;20045;-92
2022/09/28 01:18:56;;;;;;;13.43;2.50;;;;;;;9.53;100.00;99448.09;4795832;29;20483;-90
2022/09/28 01:21:25;;;;;;;17.85;2.45;;;;;;;9.53;100.00;99436.72;4785161;29;20038;-93
2022/09/28 01:24:25;;;;;;;18.27;3.45;;;;;;;9.54;100.00;99446.28;4810713;29;20048;-90
2022/09/28 01:27:29;;;;;;;16.95;2.60;;;;;;;9.55;100.00;99440.88;4819862;29;20117;-92
2022/09/28 01:30:12;;;;;;;12.55;2.22;;;;;;;9.49;100.00;99436.22;4810847;29;20053;-92
2022/09/28 01:32:48;;;;;;;11.55;2.38;;;;;;;9.49;100.00;99445.97;4810188;29;20030;-90
2022/09/28 01:35:29;;;;;;;9.68;2.17;;;;;;;9.50;100.00;99445.78;4841366;29;20064;-90
2022/09/28 01:38:36;;;;;;;19.42;1.92;;;;;;;9.47;100.00;99445.28;4819523;29;20056;-92
2022/09/28 01:41:07;;;;;;;19.20;2.80;;;;;;;9.42;100.00;99441.31;4814558;29;20074;-91
2022/09/28 01:43:40;;;;;;;9.80;2.03;;;;;;;9.46;100.00;99441.81;4811833;29;20491;-91
2022/09/28 01:46:19;;;;;;;12.77;2.75;;;;;;;9.49;100.00;99444.13;4824311;29;20049;-92
2022/09/28 01:49:02;;;;;;;14.60;2.42;;;;;;;9.54;100.00;99443.63;4830431;29;20531;-90
2022/09/28 01:51:42;;;;;;;10.60;1.67;;;;;;;9.49;100.00;99436.22;4810992;29;20034;-93
2022/09/28 01:54:22;;;;;;;11.35;1.63;;;;;;;9.46;100.00;99435.72;4834212;29;20079;-92
2022/09/28 01:57:19;;;;;;;6.97;1.27;;;;;;;9.41;100.00;99437.03;4828150;29;20133;-93
2022/09/28 01:59:59;;;;;;;15.00;2.47;;;;;;;9.38;100.00;99433.91;4780494;29;20057;-93
2022/09/28 02:02:33;;;;;;;12.43;2.10;;;;;;;9.42;100.00;99435.22;4826577;29;20030;-93
2022/09/28 02:05:15;;;;;;;11.77;2.58;;;;;;;9.37;100.00;99427.78;4864600;29;20042;-92
2022/09/28 02:08:11;;;;;;;10.85;2.08;;;;;;;9.33;100.00;99433.56;4811209;29;20038;-92
2022/09/28 02:11:08;;;;;;;13.47;2.20;;;;;;;9.29;100.00;99433.88;4797670;29;20053;-92
2022/09/28 02:13:42;;;;;;;6.13;1.63;;;;;;;9.26;100.00;99428.94;4846394;29;20050;-93
2022/09/28 02:16:30;;;;;;;10.55;1.75;;;;;;;9.26;100.00;99436.00;4822924;29;20130;-92
2022/09/28 02:19:00;;;;;;;;;;;;;;;9.13;100.00;99426.75;4815984;29;20118;-91
2022/09/28 02:21:34;;;;;;;9.90;1.75;;;;;;;9.16;100.00;99436.13;4798448;29;19974;-93
2022/09/28 02:24:09;;;;;;;12.00;2.15;;;;;;;9.14;100.00;99441.56;4828472;29;20033;-93
2022/09/28 02:26:43;;;;;;;;;;;;;;;9.03;100.00;99440.03;4839883;29;20042;-93
2022/09/28 02:29:13;;;;;;;15.13;2.30;;;;;;;9.11;100.00;99446.34;4830460;29;19917;-92
2022/09/28 02:31:41;;;;;;;11.75;2.13;;;;;;;9.11;100.00;99444.53;4827835;29;20038;-93
2022/09/28 02:34:09;;;;;;;7.35;1.60;;;;;;;9.10;100.00;99440.25;4825432;29;20046;-91
2022/09/28 02:36:37;;;;;;;8.65;1.38;;;;;;;9.13;100.00;99436.44;4844772;29;20060;-92
2022/09/28 02:39:05;;;;;;;12.13;2.60;;;;;;;9.13;100.00;99433.81;4822634;29;20507;-91
2022/09/28 02:41:46;;;;;;;15.63;2.65;;;;;;;9.11;100.00;99433.16;4815738;29;20102;-92
2022/09/28 02:45:16;;;;;;;9.75;1.83;;;;;;;9.12;100.00;99438.28;4828977;29;20033;-93
2022/09/28 02:47:52;;;;;;;9.50;1.90;;;;;;;9.16;100.00;99436.97;4806623;29;20547;-92
2022/09/28 02:50:30;;;;;;;;;;;;;;;9.07;100.00;99435.28;4803929;29;20039;-92
2022/09/28 02:53:17;;;;;;;10.25;1.95;;;;;;;9.13;100.00;99439.09;4811968;29;19923;-92
2022/09/28 02:56:01;;;;;;;11.82;2.20;;;;;;;9.13;100.00;99431.19;4842527;29;20080;-91
2022/09/28 02:58:54;;;;;;;12.73;2.42;;;;;;;9.12;100.00;99437.44;4843720;29;20115;-92
2022/09/28 03:01:26;;;;;;;7.95;1.40;;;;;;;9.08;100.00;99436.13;4836517;29;20108;-92
2022/09/28 03:04:36;;;;;;;12.23;1.92;;;;;;;9.05;100.00;99432.81;4827933;29;20038;-91
2022/09/28 03:07:20;;;;;;;7.68;1.58;;;;;;;9.04;100.00;99438.25;4821947;29;20061;-90
2022/09/28 03:10:06;;;;;;;7.55;1.25;;;;;;;8.99;100.00;99428.19;4838344;29;20495;-91
2022/09/28 03:12:37;;;;;;;12.35;2.17;;;;;;;8.98;100.00;99429.16;4827106;29;20099;-91
2022/09/28 03:15:24;;;;;;;9.15;1.23;;;;;;;8.97;100.00;99435.41;4809182;29;20038;-92
2022/09/28 03:17:57;;;;;;;6.25;1.45;;;;;;;8.95;100.00;99434.75;4809327;29;20404;-92
2022/09/28 03:20:28;;;;;;;9.35;1.88;;;;;;;8.92;100.00;99442.97;4821982;29;20034;-93
2022/09/28 03:22:57;;;;;;;7.60;1.17;;;;;;;8.95;100.00;99445.28;4819055;29;20050;-92
2022/09/28 03:25:25;;;;;;;8.48;1.40;;;;;;;8.96;100.00;99446.13;4857067;29;20082;-90
2022/09/28 03:27:53;;;;;;;8.70;1.23;;;;;;;8.97;100.00;99435.41;4825296;29;20030;-92
2022/09/28 03:30:21;;;;;;;7.40;1.20;;;;;;;9.03;100.00;99447.16;4841902;29;20037;-91
2022/09/28 03:32:58;;;;;;;13.10;1.60;;;;;;;9.01;100.00;99438.56;4805744;29;20043;-91
2022/09/28 03:35:28;;;;;;;10.48;1.50;;;;;;;9.03;100.00;99441.88;4789577;29;20038;-91
2022/09/28 03:37:57;;;;;;;8.50;1.50;;;;;;;9.02;100.00;99437.56;4831797;29;20057;-89
2022/09/28 03:40:28;;;;;;;13.10;2.00;;;;;;;9.01;100.00;99439.41;4810301;29;20042;-91
2022/09/28 03:42:58;;;;;;;9.02;1.52;;;;;;;9.00;100.00;99444.84;4826292;29;20038;-91
2022/09/28 03:45:26;;;;;;;5.65;1.38;;;;;;;9.00;100.00;99436.94;4794803;29;20034;-85
2022/09/28 03:47:54;;;;;;;11.75;2.13;;;;;;;8.99;100.00;99441.38;4808275;29;20038;-93
2022/09/28 03:50:22;;;;;;;9.55;1.70;;;;;;;8.97;100.00;99437.22;4816235;29;20147;-91
2022/09/28 03:52:49;;;;;;;10.05;1.83;;;;;;;8.96;100.00;99436.41;4820068;29;20041;-92
2022/09/28 03:55:19;;;;;;;6.13;1.10;;;;;;;9.00;100.00;99436.94;4827262;29;20065;-93
2022/09/28 03:57:57;;;;;;;7.93;1.88;;;;;;;9.01;100.00;99430.66;4842785;29;20121;-93
2022/09/28 04:00:24;;;;;;;6.15;1.60;;;;;;;8.99;100.00;99435.25;4813550;29;20040;-92
2022/09/28 04:02:52;;;;;;;7.18;1.52;;;;;;;8.96;100.00;99433.78;4813644;29;20081;-90
2022/09/28 04:05:20;;;;;;;6.82;1.10;;;;;;;8.93;100.00;99442.81;4812094;29;20038;-91
2022/09/28 04:07:52;;;;;;;11.55;1.92;;;;;;;8.91;100.00;99439.53;4810998;29;20046;-90
2022/09/28 04:10:21;;;;;;;5.00;1.10;;;;;;;8.89;100.00;99443.28;4827546;29;20125;-90
2022/09/28 04:12:56;;;;;;;12.40;1.58;;;;;;;8.91;100.00;99444.78;4856475;29;20034;-92
2022/09/28 04:15:25;;;;;;;5.82;0.95;;;;;;;8.91;100.00;99444.78;4824923;29;20136;-92
2022/09/28 04:17:52;;;;;;;9.27;1.70;;;;;;;8.90;100.00;99447.59;4817122;29;20529;-91
2022/09/28 04:20:39;;;;;;;8.23;1.20;;;;;;;8.86;100.00;99443.59;4836531;29;20046;-92
2022/09/28 04:23:11;;;;;;;7.97;1.30;;;;;;;8.85;100.00;99444.59;4812140;29;20053;-93
2022/09/28 04:25:45;;;;;;;9.80;1.30;;;;;;;8.84;100.00;99442.94;4826510;29;20466;-90
2022/09/28 04:31:09;;;;;;;5.60;1.27;;;;;;;8.80;100.00;99448.53;4818002;29;20041;-93
2022/09/28 04:33:39;;;;;;;3.55;0.90;;;;;;;8.79;100.00;99435.53;4843742;29;20034;-93
2022/09/28 04:36:09;;;;;;;9.57;1.08;;;;;;;8.79;100.00;99438.16;4806771;29;20038;-91
2022/09/28 04:38:38;;;;;;;7.60;0.80;;;;;;;8.78;100.00;99441.75;4821504;29;20055;-91
2022/09/28 04:41:06;;;;;;;6.78;1.13;;;;;;;8.79;100.00;99438.16;4805374;29;20038;-90
2022/09/28 04:43:34;;;;;;;7.93;1.30;;;;;;;8.78;100.00;99445.22;4823184;29;20034;-90
2022/09/28 04:46:06;;;;;;;10.27;1.38;;;;;;;8.79;100.00;99435.53;4821423;29;20491;-92
2022/09/28 04:48:42;;;;;;;7.35;0.98;;;;;;;8.83;100.00;99436.00;4823722;29;20461;-89
2022/09/28 04:51:32;;;;;;;11.27;1.20;;;;;;;8.84;100.00;99442.94;4811086;29;20046;-92
2022/09/28 04:54:00;;;;;;;6.28;1.05;;;;;;;8.85;100.00;99444.59;4826929;29;20503;-92
2022/09/28 04:56:28;;;;;;;4.38;0.98;;;;;;;8.85;100.00;99449.88;4800167;29;20076;-93
2022/09/28 04:58:55;;;;;;;6.40;1.48;;;;;;;8.81;100.00;99459.88;4813680;29;20053;-92
2022/09/28 05:01:24;;;;;;;6.38;1.00;;;;;;;8.75;100.00;99453.44;4819246;29;20038;-89
2022/09/28 05:03:55;;;;;;;9.88;1.10;;;;;;;8.73;100.00;99460.66;4835492;29;20038;-91
2022/09/28 05:06:47;;;;;;;8.23;0.80;;;;;;;8.76;100.00;99459.53;4823688;29;20042;-90
2022/09/28 05:09:15;;;;;;;10.35;0.80;;;;;;;8.77;100.00;99461.19;4827614;29;20457;-92
2022/09/28 05:11:43;;;;;;;9.32;1.20;;;;;;;8.76;100.00;99452.44;4841757;29;20041;-91
2022/09/28 05:14:16;;;;;;;7.13;0.63;;;;;;;8.76;100.00;99455.09;4824329;29;20132;-90
2022/09/28 05:16:45;;;;;;;5.32;0.70;;;;;;;8.78;100.00;99455.75;4829637;29;20078;-93
2022/09/28 05:19:36;;;;;;;5.80;0.63;;;;;;;8.77;100.00;99454.13;4810015;29;20392;-84
2022/09/28 05:22:10;;;;;;;10.40;1.02;;;;;;;8.81;100.00;99454.63;4809214;29;20069;-83
2022/09/28 05:24:41;;;;;;;5.18;1.00;;;;;;;8.81;100.00;99471.25;4809778;29;20042;-91
2022/09/28 05:27:10;;;;;;;9.85;2.20;;;;;;;8.86;100.00;99464.69;4807849;29;20038;-91
2022/09/28 05:29:38;;;;;;;7.55;1.30;;;;;;;8.88;100.00;99463.56;4826849;29;20030;-91
2022/09/28 05:32:41;;;;;;;4.07;0.70;;;;;;;8.93;100.00;99465.72;4846234;29;20042;-91
2022/09/28 05:35:21;;;;;;;4.90;1.00;;;;;;;8.96;100.00;99464.56;4821207;29;20092;-92
2022/09/28 05:37:48;;;;;;;5.32;0.60;;;;;;;8.99;100.00;99464.25;4838162;29;20053;-92
2022/09/28 05:40:18;;;;;;;10.82;0.95;;;;;;;9.03;100.00;99457.69;4825687;29;20506;-91
2022/09/28 05:42:50;;;;;;;4.25;1.00;;;;;;;9.07;100.00;99464.28;4794191;29;20045;-92
2022/09/28 05:45:18;;;;;;;7.47;0.82;;;;;;;9.06;100.00;99457.38;4821655;29;20504;-92
2022/09/28 05:47:46;;;;;;;4.55;0.52;;;;;;;9.06;100.00;99458.19;4811168;29;20041;-92
2022/09/28 05:50:17;;;;;;;10.38;1.30;;;;;;;9.06;100.00;99460.81;4810677;29;20449;-90
2022/09/28 05:52:46;;;;;;;14.23;1.35;;;;;;;9.03;100.00;99463.78;4825068;29;20052;-91
2022/09/28 05:55:15;;;;;;;6.45;1.13;;;;;;;9.03;100.00;99462.97;4824901;29;20034;-92
2022/09/28 05:57:43;;;;;;;4.75;0.88;;;;;;;9.00;100.00;99464.09;4828880;29;20041;-90
2022/09/28 06:00:13;;;;;;;7.72;1.05;;;;;;;9.01;100.00;99459.66;4797174;29;20118;-88
2022/09/28 06:03:04;;;;;;;7.25;0.77;;;;;;;9.03;100.00;99468.25;4841956;29;20053;-91
2022/09/28 06:05:34;;;;;;;9.80;1.45;;;;;;;8.99;100.00;99465.09;4830878;29;20479;-88
2022/09/28 06:08:07;;;;;;;8.20;0.90;;;;;;;9.03;100.00;99468.25;4795442;29;20492;-84
2022/09/28 06:10:37;;;;;;;6.45;1.10;;;;;;;9.04;100.00;99469.88;4824646;29;20076;-84
2022/09/28 06:13:09;;;;;;;10.75;0.70;;;;;;;9.05;100.00;99469.72;4851394;29;20042;-90
2022/09/28 06:15:41;;;;;;;7.15;1.23;;;;;;;9.03;100.00;99471.69;4825563;29;20038;-88
2022/09/28 06:18:13;;;;;;;5.78;0.95;;;;;;;9.03;100.00;99468.25;4839829;29;20400;-92
2022/09/28 06:20:55;;;;;;;5.90;0.80;;;;;;;8.96;100.00;99467.19;4812871;29;20441;-90
2022/09/28 06:23:44;;;;;;;6.53;1.08;;;;;;;8.96;100.00;99469.84;4840042;29;20133;-88
2022/09/28 06:26:13;;;;;;;10.05;1.30;;;;;;;8.95;100.00;99478.75;4840170;29;20396;-91
2022/09/28 06:28:41;;;;;;;4.03;0.93;;;;;;;8.93;100.00;99476.25;4827136;29;20056;-88
2022/09/28 06:31:10;;;;;;;11.35;1.52;;;;;;;8.95;100.00;99474.28;4827540;29;20496;-92
2022/09/28 06:33:45;;;;;;;11.73;2.40;;;;;;;8.95;100.00;99470.84;4813135;29;20133;-92
2022/09/28 06:36:13;;;;;;;18.30;1.42;;;;;;;8.95;100.00;99466.38;4841107;29;20041;-89
2022/09/28 06:38:41;;;;;;;6.35;0.90;;;;;;;8.93;100.00;99463.09;4842532;29;20050;-91
2022/09/28 06:41:10;;;;;;;12.07;1.05;;;;;;;8.94;100.00;99470.00;4857655;29;20049;-89
2022/09/28 06:43:40;;;;;;;5.28;1.05;;;;;;;8.90;100.00;99477.38;4825537;29;20061;-90
2022/09/28 06:46:13;;;;;;;10.00;0.80;;;;;;;8.88;100.00;99481.16;4824658;29;20038;-91
2022/09/28 06:48:50;;;;;;;6.68;0.85;;;;;;;8.84;100.00;99479.84;4808798;29;20045;-92
2022/09/28 06:51:23;;;;;;;10.93;1.33;;;;;;;8.82;100.00;99474.72;4798611;29;20041;-91
2022/09/28 06:54:02;;;;;;;10.10;0.90;;;;;;;8.88;100.00;99481.16;4828343;29;20053;-90
2022/09/28 06:56:40;;;;;;;7.80;0.68;;;;;;;8.86;100.00;99477.84;4828711;29;20034;-91
2022/09/28 06:59:11;;;;;;;4.68;0.68;;;;;;;8.91;100.00;99489.59;4840493;29;20141;-92
2022/09/28 07:01:41;;;;;;;6.43;0.73;;;;;;;8.91;100.00;99486.97;4842758;29;20109;-92
2022/09/28 07:04:19;;;;;;;1.92;0.52;;;;;;;8.92;100.00;99480.69;4811573;29;20059;-90
2022/09/28 07:07:09;;;;;;;3.28;0.40;;;;;;;8.90;100.00;99482.66;4814846;29;20039;-92
2022/09/28 07:09:56;;;;;;;3.45;0.70;;;;;;;8.92;100.00;99499.16;4823119;29;20042;-92
2022/09/28 07:12:57;;;;;;;8.27;0.60;;;;;;;8.89;100.00;99498.63;4805198;29;20058;-92
2022/09/28 07:15:36;;;;;;;3.20;0.57;;;;;;;8.92;100.00;99495.66;4826329;29;20041;-91
2022/09/28 07:18:05;;;;;;;6.90;1.10;;;;;;;8.91;100.00;99502.78;4827292;29;20034;-92
2022/09/28 07:20:35;;;;;;;8.75;0.47;;;;;;;8.91;100.00;99505.41;4826629;29;20034;-90
2022/09/28 07:23:05;;;;;;;12.05;0.65;;;;;;;8.93;100.00;99505.25;4811163;29;20030;-90
2022/09/28 07:25:48;;;;;;;6.72;0.80;;;;;;;8.95;100.00;99513.81;4828226;29;20057;-91
2022/09/28 07:28:42;;;;;;;10.82;1.27;;;;;;;8.89;100.00;99511.78;4818345;29;20038;-89
2022/09/28 07:31:32;;;;;;;4.05;0.50;;;;;;;8.90;100.00;99510.84;4812408;29;20049;-88
2022/09/28 07:34:22;;;;;;;3.67;0.88;;;;;;;8.88;100.00;99511.00;4815004;29;20030;-90
2022/09/28 07:37:23;;;;;;;3.85;0.60;;;;;;;8.88;100.00;99505.72;4820725;29;20045;-90
2022/09/28 07:42:43;;;;;;;5.32;0.90;;;;;;;8.96;100.00;99510.22;4808807;29;20038;-90
2022/09/28 07:45:13;;;;;;;1.88;0.55;;;;;;;8.97;100.00;99509.22;4790897;29;20043;-91
2022/09/28 07:47:40;;;;;;;6.15;1.20;;;;;;;8.99;100.00;99504.63;4822920;29;20204;-91
2022/09/28 07:50:26;;;;;;;4.65;0.93;;;;;;;9.00;100.00;99508.91;4807951;29;20038;-91
2022/09/28 07:53:01;;;;;;;4.07;1.00;;;;;;;9.06;100.00;99507.47;4817723;29;20038;-90
2022/09/28 07:55:41;;;;;;;4.20;0.80;;;;;;;9.11;100.00;99520.16;4813745;29;20061;-89
2022/09/28 07:58:21;;;;;;;5.28;1.10;;;;;;;9.13;100.00;99510.28;4811764;29;20041;-89
2022/09/28 08:01:15;;;;;;;2.83;0.73;;;;;;;9.14;100.00;99512.75;4829125;29;20038;-90
2022/09/28 08:03:46;;;;;;;5.22;1.00;;;;;;;9.17;100.00;99496.59;4827524;29;20042;-89
2022/09/28 08:06:17;;;;;;;6.00;0.90;;;;;;;9.21;100.00;99509.47;4827768;29;20188;-88
2022/09/28 08:08:45;;;;;;;5.32;2.28;;;;;;;9.22;100.00;99500.59;4827008;29;20050;-91
2022/09/28 08:11:18;;;;;;;7.38;0.70;;;;;;;9.26;100.00;99504.56;4828004;29;20041;-90
2022/09/28 08:14:12;;;;;;;3.78;0.70;;;;;;;9.30;100.00;99500.63;4801515;29;20041;-91
2022/09/28 08:16:53;;;;;;;4.68;0.85;;;;;;;9.36;100.00;99509.72;4848091;29;20038;-92
2022/09/28 08:22:31;;;;;;;6.07;0.77;;;;;;;9.43;100.00;99513.34;4807939;29;20045;-92
2022/09/28 08:25:01;;;;;;;2.80;0.32;;;;;;;9.44;100.00;99509.75;4843770;29;20033;-93
2022/09/28 08:27:31;;;;;;;3.60;0.47;;;;;;;9.45;100.00;99515.81;4810575;29;20034;-93
2022/09/28 08:30:01;;;;;;;2.72;0.60;;;;;;;9.46;100.00;99512.22;4812629;29;20050;-92
2022/09/28 08:32:48;;;;;;;5.70;0.95;;;;;;;9.47;100.00;99514.69;4823704;29;20050;-95
2022/09/28 08:35:42;;;;;;;4.93;0.75;;;;;;;9.49;100.00;99504.78;4813394;29;20511;-91
2022/09/28 08:38:15;;;;;;;2.65;0.40;;;;;;;9.51;100.00;99510.75;4848289;29;20136;-92
2022/09/28 08:41:22;;;;;;;4.68;0.50;;;;;;;9.57;100.00;99517.22;4825639;29;20037;-93
2022/09/28 08:44:25;;;;;;;2.95;0.70;;;;;;;9.59;100.00;99509.13;4802805;29;20045;-92
2022/09/28 08:48:42;;;;;;;3.58;0.30;;;;;;;9.64;100.00;99515.56;4829556;29;20034;-91
2022/09/28 08:50:23;;;;;;;2.20;0.45;;;;;;;9.70;100.00;99502.72;4840007;29;20034;-92
2022/09/28 08:53:40;;;;;;;5.40;0.52;;;;;;;9.75;100.00;99498.59;4837865;29;20034;-92
2022/09/28 08:56:47;;;;;;;5.05;0.50;;;;;;;9.86;100.00;99504.56;4827286;29;20049;-93
2022/09/28 08:59:22;;;;;;;4.28;0.50;;;;;;;9.99;100.00;99501.41;4839638;29;20130;-91
2022/09/28 09:02:02;;;;;;;4.80;0.60;;;;;;;10.02;100.00;99501.94;4799765;29;20042;-92
2022/09/28 09:04:33;;;;;;;8.98;0.80;;;;;;;10.08;100.00;99500.44;4804646;29;20522;-91
2022/09/28 09:07:14;;;;;;;4.28;0.32;;;;;;;10.15;100.00;99498.81;4834029;29;20113;-90
2022/09/28 09:10:11;;;;;;;4.45;0.52;;;;;;;10.13;100.00;99497.31;4822408;29;20452;-90
2022/09/28 09:13:13;;;;;;;4.05;0.60;;;;;;;9.96;100.00;99502.59;4825409;29;20049;-92
2022/09/28 09:15:47;;;;;;;6.90;1.25;;;;;;;9.95;100.00;99497.47;4814805;29;20078;-92
2022/09/28 09:18:29;;;;;;;4.22;0.93;;;;;;;9.98;100.00;99502.41;4828001;29;20042;-91
2022/09/28 09:21:17;;;;;;;5.43;0.52;;;;;;;9.96;100.00;99496.47;4824364;29;20069;-92
2022/09/28 09:23:55;;;;;;;1.00;0.50;;;;;;;10.01;100.00;99499.44;4825234;29;20042;-92
2022/09/28 09:26:39;;;;;;;7.28;0.82;;;;;;;10.01;100.00;99496.81;4836264;29;20038;-92
2022/09/28 09:29:25;;;;;;;11.90;0.80;;;;;;;10.05;100.00;99496.31;4833265;29;20085;-92
2022/09/28 09:32:15;;;;;;;8.90;0.63;;;;;;;10.16;100.00;99494.34;4847036;29;20373;-92
2022/09/28 09:35:04;;;;;;;2.25;0.60;;;;;;;10.24;100.00;99490.88;4808480;29;20038;-90
2022/09/28 09:38:05;;;;;;;4.22;0.50;;;;;;;10.28;100.00;99494.84;4812858;29;20053;-92
2022/09/28 09:40:56;;;;;;;2.88;0.60;;;;;;;10.39;100.00;99486.56;4807105;29;20157;-91
2022/09/28 09:43:57;;;;;;;3.80;0.30;;;;;;;10.46;100.00;99491.19;4830643;29;20811;-92
2022/09/28 09:46:50;;;;;;;5.43;1.17;;;;;;;10.50;100.00;99496.00;4828508;29;20399;-92
2022/09/28 09:49:50;;;;;;;2.95;0.40;;;;;;;10.56;100.00;99496.34;4821789;29;20075;-91
2022/09/28 09:52:34;;;;;;;1.80;0.47;;;;;;;10.50;100.00;99498.66;4855317;29;20072;-93
2022/09/28 09:55:14;;;;;;;0.85;0.30;;;;;;;10.53;100.00;99489.53;4822440;29;20088;-91
2022/09/28 09:58:20;;;;;;;4.03;0.73;;;;;;;10.52;100.00;99490.53;4826058;29;20045;-92
2022/09/28 10:00:55;;;;;;;4.32;0.40;;;;;;;10.62;100.00;99488.53;4836678;29;20045;-91
2022/09/28 10:03:47;;;;;;;4.22;0.65;;;;;;;10.66;100.00;99491.66;4836789;29;20061;-93
2022/09/28 10:06:26;;;;;;;3.38;0.55;;;;;;;10.71;100.00;99476.13;4800673;29;20477;-89
2022/09/28 10:09:04;;;;;;;4.35;0.40;;;;;;;10.78;100.00;99477.09;4822151;29;20060;-92
2022/09/28 10:11:43;;;;;;;6.05;0.50;;;;;;;10.91;100.00;99483.66;4825013;29;20053;-92
2022/09/28 10:14:22;;;;;;;4.10;0.63;;;;;;;10.99;100.00;99480.19;4840494;29;20048;-92
2022/09/28 10:17:03;;;;;;;1.30;0.28;;;;;;;11.09;100.00;99479.97;4826919;29;20034;-91
2022/09/28 10:20:13;;;;;;;8.15;0.75;;;;;;;11.13;100.00;99471.53;4829785;29;20107;-92
2022/09/28 10:22:44;;;;;;;5.60;0.88;;;;;;;11.27;100.00;99470.00;4840307;29;20056;-90
2022/09/28 10:25:18;;;;;;;2.88;0.65;;;;;;;11.40;100.00;99477.34;4826952;29;20099;-90
2022/09/28 10:27:51;;;;;;;2.40;0.70;;;;;;;11.44;100.00;99479.63;4807756;29;20033;-90
2022/09/28 10:30:25;;;;;;;4.90;0.60;;;;;;;11.41;99.66;99476.38;4810149;29;20041;-92
2022/09/28 10:32:59;;;;;;;3.80;0.50;;;;;;;11.33;99.21;99462.34;4824592;29;20066;-91
2022/09/28 10:35:41;;;;;;;1.95;0.50;;;;;;;11.33;98.42;99464.97;4825817;29;20619;-92
2022/09/28 10:38:17;;;;;;;6.78;0.80;;;;;;;11.34;99.67;99456.06;4823197;29;20495;-91
2022/09/28 10:40:54;;;;;;;8.57;0.80;;;;;;;11.36;99.19;99454.06;4839745;29;20125;-90
2022/09/28 10:43:37;;;;;;;3.08;0.60;;;;;;;11.28;97.05;99462.88;4812981;29;20041;-91
2022/09/28 10:46:20;;;;;;;3.88;0.63;;;;;;;11.22;97.08;99460.91;4828612;29;20046;-92
2022/09/28 10:49:05;;;;;;;3.45;0.55;;;;;;;11.20;97.41;99462.91;4812251;29;20046;-91
2022/09/28 10:51:48;;;;;;;2.72;0.57;;;;;;;11.18;97.62;99454.34;4827635;29;20069;-91
2022/09/28 10:54:28;;;;;;;2.03;0.50;;;;;;;11.24;97.67;99457.13;4817439;29;20060;-92
2022/09/28 10:56:59;;;;;;;3.35;0.60;;;;;;;11.33;97.51;99457.06;4798285;29;20095;-90
2022/09/28 10:59:54;;;;;;;3.65;0.73;;;;;;;11.35;96.76;99457.72;4830623;29;20049;-91
2022/09/28 11:02:40;;;;;;;4.05;0.77;;;;;;;11.37;95.37;99458.38;4810940;29;20042;-89
2022/09/28 11:05:21;;;;;;;5.15;0.82;;;;;;;11.40;96.19;99455.38;4829998;29;20495;-90
2022/09/28 11:07:54;;;;;;;3.22;0.65;;;;;;;11.34;94.34;99456.88;4823145;29;20510;-90
2022/09/28 11:10:30;;;;;;;3.53;0.50;;;;;;;11.32;94.57;99450.13;4804146;29;20049;-90
2022/09/28 11:13:09;;;;;;;2.45;0.32;;;;;;;11.45;95.24;99449.56;4820808;29;20090;-90
2022/09/28 11:15:42;;;;;;;9.52;0.77;;;;;;;11.64;95.94;99445.63;4794616;29;20046;-90
2022/09/28 11:18:25;;;;;;;2.20;0.35;;;;;;;11.88;95.67;99438.50;4812456;29;20934;-90
2022/09/28 11:21:07;;;;;;;6.32;0.93;;;;;;;11.94;93.90;99431.66;4812575;29;20487;-89
2022/09/28 11:23:35;;;;;;;2.25;0.40;;;;;;;11.87;93.95;99435.03;4830595;29;20041;-90
2022/09/28 11:26:16;;;;;;;6.18;0.55;;;;;;;11.77;92.82;99432.63;4813011;29;20033;-88
2022/09/28 11:28:51;;;;;;;3.28;0.40;;;;;;;11.70;91.96;99434.34;4833468;29;20048;-90
2022/09/28 11:31:34;;;;;;;4.28;1.02;;;;;;;11.64;92.99;99437.69;4827395;29;20042;-90
2022/09/28 11:34:20;;;;;;;3.78;0.70;;;;;;;11.62;92.78;99426.44;4853391;29;20030;-90
2022/09/28 11:37:32;;;;;;;3.67;0.60;;;;;;;11.62;93.25;99422.00;4850280;29;20038;-91
2022/09/28 11:40:29;;;;;;;2.83;0.43;;;;;;;11.64;92.52;99421.81;4819612;29;20042;-90
2022/09/28 11:43:19;;;;;;;;;;;;;;;11.54;93.20;99417.56;4821175;29;20133;-89
2022/09/28 11:45:51;;;;;;;3.28;0.85;;;;;;;11.69;94.13;99415.97;4833459;29;20002;-93
2022/09/28 11:48:27;;;;;;;4.65;0.60;;;;;;;11.78;93.59;99410.44;4809452;29;20134;-91
2022/09/28 11:51:04;;;;;;;4.15;0.60;;;;;;;11.80;92.79;99412.91;4839669;29;20094;-91
2022/09/28 11:53:42;;;;;;;4.47;0.60;;;;;;;11.81;92.90;99409.25;4825179;29;20033;-91
2022/09/28 11:56:11;;;;;;;3.97;0.50;;;;;;;11.86;93.22;99409.56;4826330;29;20506;-92
2022/09/28 11:58:52;;;;;;;3.05;0.50;;;;;;;11.94;91.61;99403.38;4811391;29;20098;-90
2022/09/28 12:01:36;;;;;;;1.77;0.57;;;;;;;11.96;90.52;99405.84;4813075;29;20057;-89
2022/09/28 12:04:30;;;;;;;3.30;0.47;;;;;;;12.06;89.54;99395.81;4811091;29;20041;-91
2022/09/28 12:07:09;;;;;;;4.30;0.50;;;;;;;12.25;90.38;99396.31;4840568;29;20057;-89
2022/09/28 12:09:53;;;;;;;1.95;0.38;;;;;;;12.34;88.33;99397.88;4841294;29;20045;-90
2022/09/28 12:12:32;;;;;;;2.70;0.40;;;;;;;12.40;87.45;99391.88;4840992;29;20061;-90
2022/09/28 12:15:13;;;;;;;2.75;0.50;;;;;;;12.46;88.34;99387.66;4839683;29;20045;-89
2022/09/28 12:17:47;;;;;;;4.22;0.93;;;;;;;12.61;89.54;99384.19;4836324;29;20030;-90
2022/09/28 12:20:29;;;;;;;2.63;0.90;;;;;;;12.74;89.15;99392.28;4800867;29;20151;-91
2022/09/28 12:23:07;;;;;;;2.88;0.98;;;;;;;12.90;89.80;99387.78;4827298;29;20168;-90
2022/09/28 12:25:45;;;;;;;2.80;0.73;;;;;;;12.99;89.70;99384.03;4822230;29;20129;-89
2022/09/28 12:29:00;;;;;;;1.27;0.50;;;;;;;13.03;89.51;99389.75;4824379;29;20099;-90
2022/09/28 12:32:03;;;;;;;3.03;0.90;;;;;;;12.91;89.81;99386.78;4817170;29;20148;-91
2022/09/28 12:34:31;;;;;;;0.80;0.20;;;;;;;12.70;90.03;99375.09;4840396;29;20116;-89